Flight Track Log - Related Links

Times and Time Zones

All times are in EDT time to prevent confusion due to time zone crossing. See the EJA696 flight status page for this flight to view local times or setup timezone preferences in your user account.

Time Position Orientation Groundspeed Altitude Reporting Facility
EDT Latitude Longitude Course Direction KTS MPH feet Rate Location/Type
Wed 08:20:52 PM 40.7500 -74.3833 53° Northeast 231 266 3,600  Level New York TRACON
Wed 08:21:46 PM 40.8000 -74.3333 37° Northeast 264 304 5,500 1,250 Climbing New York TRACON
Wed 08:22:52 PM 40.8833 -74.2833 24° Northeast 286 329 6,100 300 Climbing New York TRACON
Wed 08:23:46 PM 40.9333 -74.2500 27° Northeast 284 327 6,100  Level New York TRACON
Wed 08:24:52 PM 41.0167 -74.2167 17° North 284 327 6,100 519 Level New York TRACON
Wed 08:26:00 PM 41.1898 -73.7124 53° Northeast  Level Estimated
Wed 08:26:28 PM 41.1308 -74.1514 23° Northeast 295 339 7,500  Level Boston Center
Wed 08:27:28 PM 41.1803 -74.0481 58° Northeast 285 328 10,500 2,250 Climbing Boston Center
Wed 08:28:28 PM 41.2047 -73.9381 74° East 313 360 12,000 1,600 Climbing Boston Center
Wed 08:29:28 PM 41.2333 -73.8008 74° East 340 391 13,700 1,500 Climbing Boston Center
Wed 08:30:28 PM 41.2642 -73.6744 72° East 350 403 15,000 600 Climbing Boston Center
Wed 08:31:28 PM 41.2903 -73.5478 75° East 350 403 14,900 -50 Descending Boston Center
Wed 08:32:28 PM 41.3186 -73.4239 73° East 350 403 14,900  Level Boston Center
Wed 08:33:28 PM 41.3467 -73.3000 73° East 350 403 14,900  Level Boston Center
Wed 08:34:28 PM 41.3706 -73.1897 74° East 350 403 14,900 50 Level Boston Center
Wed 08:35:28 PM 41.4192 -73.0600 63° Northeast 350 403 15,000 45 Climbing Boston Center
Wed 08:36:40 PM 41.4614 -72.9608 60° Northeast 344 396 15,000  Level Boston Center
Wed 08:37:40 PM 41.5244 -72.8172 60° Northeast 344 396 15,000  Level Boston Center
Wed 08:38:40 PM 41.5747 -72.7036 59° Northeast 350 403 15,000 -350 Level Boston Center
Wed 08:39:40 PM 41.6356 -72.6067 50° Northeast 350 403 14,300 -865 Descending Boston Center
Wed 08:40:31 PM 41.6939 -72.5317 44° Northeast 334 384 13,400 -1,075 Descending Boston Center
Wed 08:41:26 PM 41.7564 -72.4594 41° Northeast 328 377 12,400 -1,043 Descending Boston Center
Wed 08:42:26 PM 41.8211 -72.3789 43° Northeast 318 366 11,400 -694 Descending Boston Center
Wed 08:43:27 PM 41.8833 -72.3006 43° Northeast 311 358 11,000 -207 Descending Boston Center
Wed 08:44:22 PM 41.9439 -72.2281 42° Northeast 314 361 11,000 -247 Level Boston Center
Wed 08:44:40 PM 41.9625 -72.2056 42° Northeast 314 361 10,700 -1,000 Descending Boston Center
Wed 08:45:22 PM 42.0103 -72.1467 42° Northeast 314 361 10,000 -900 Descending Boston Center
Wed 08:45:40 PM 42.0247 -72.1269 45° Northeast 314 361 9,800 -1,082 Descending Boston Center
Wed 08:46:23 PM 42.0725 -72.0708 41° Northeast 309 356 8,900 -1,200 Descending Boston Center
Wed 08:46:40 PM 42.0872 -72.0483 49° Northeast 314 361 8,600 -984 Descending Boston Center
Wed 08:47:24 PM 42.1328 -71.9978 39° Northeast 302 348 7,900 -900 Descending Boston Center
Wed 08:47:40 PM 42.1514 -71.9781 38° Northeast 303 349 7,700 -1,000 Descending Boston Center
Wed 08:48:24 PM 42.1992 -71.9300 37° Northeast 295 339 6,900 -1,100 Descending Boston Center
Wed 08:48:40 PM 42.2158 -71.9047 48° Northeast 297 342 6,600 -1,026 Descending Boston Center
Wed 08:49:40 PM 42.2778 -71.8369 39° Northeast 297 342 5,600 -800 Descending Boston Center
Wed 08:50:40 PM 42.3317 -71.7578 47° Northeast 290 334 5,000 -300 Descending Boston Center
Wed 08:51:40 PM 42.3792 -71.6897 47° Northeast 271 312 5,000 -250 Level Boston Center
Wed 08:52:40 PM 42.4369 -71.6017 48° Northeast 271 312 4,500 -688 Descending Boston Center
Wed 08:53:16 PM 42.4667 -71.5500 52° Northeast 265 305 3,900 -1,011 Descending KA90
Wed 08:54:15 PM 42.5167 -71.4833 44° Northeast 245 282 2,900 -1,008 Descending KA90
Wed 08:55:15 PM 42.5333 -71.4000 75° East 221 254 1,900 -550 Descending KA90
Wed 08:56:15 PM 42.5500 -71.3333 71° East 203 234 1,800 -150 Descending KA90
Wed 08:57:15 PM 42.5333 -71.2667 109° East 142 163 1,600 -400 Descending KA90
Wed 08:58:15 PM 42.5167 -71.2500 144° Southeast 138 159 1,000 -550 Descending KA90
Wed 08:59:15 PM 42.4833 -71.2667 200° South 102 117 500 -500 Descending KA90

Login

Don't have an account? Register now (free) for customized features, flight alerts, and more!